• Join FlightAware (Why Join?)
  • Login
  • US Flag 
05:22AM EDT


 

Airport Tracker/Info


-or-


 

Live Flight TrackerFlight Track Log ✈ PDT4170 ✈ 27.07.2013 ✈ KTRI - KCLT

Flight Track Log - Related Links

Times and Time Zones

All times are in EDT time to prevent confusion due to time zone crossing. See the PDT4170 flight status page for this flight to view local times or setup timezone preferences in your user account.

Time Position Orientation Groundspeed Altitude Reporting Facility
EDT Latitude Longitude Course Direction KTS MPH feet Rate Location/Type
04:37PM 36.4272 -82.4311 158° South 135 155 3,100  Level Atlanta Center
04:38PM 36.3656 -82.2780 99° East  Level Estimated
04:38PM 36.3875 -82.4192 166° South 147 169 4,300  Level Atlanta Center
04:39PM 36.3290 -82.2349 90° East  Level Estimated
04:39PM 36.3578 -82.3861 138° Southeast 147 169 5,700  Level Atlanta Center
04:40PM 36.2924 -82.1919 158° South  Level Estimated
04:40PM 36.3283 -82.3508 136° Southeast 157 181 6,800  Level Atlanta Center
04:41PM 36.3250 -82.1442 50° Northeast  Level FlightAware Approximate
04:41PM 36.2944 -82.3128 138° Southeast 157 181 8,000  Level Atlanta Center
04:42PM 36.2873 -82.1028 158° South  Level Estimated
04:42PM 36.2625 -82.2722 134° Southeast 157 181 9,000  Level Atlanta Center
04:43PM 36.2286 -82.2319 136° Southeast 169 194 10,100 840 Climbing Atlanta Center
04:44PM 36.1989 -82.1964 136° Southeast 169 194 10,700 420 Climbing Atlanta Center
04:45PM 36.1606 -82.1486 135° Southeast 177 204 11,000 120 Climbing Atlanta Center
04:46PM 36.1078 -82.1061 147° Southeast 210 242 11,000  Level Atlanta Center
04:47PM 36.0589 -82.0533 139° Southeast 228 262 11,000 -180 Level Atlanta Center
04:48PM 36.0058 -81.9981 140° Southeast 239 275 10,700 -360 Descending Atlanta Center
04:49PM 35.9467 -81.9483 146° Southeast 250 288 10,300 -420 Descending Atlanta Center
04:50PM 35.8856 -81.9089 152° Southeast 255 293 9,900 -420 Descending Atlanta Center
04:51PM 35.8225 -81.8822 161° South 248 285 9,500 -480 Descending Atlanta Center
04:52PM 35.7756 -81.8247 135° Southeast 238 274 9,000 -300 Descending Atlanta Center
04:53PM 35.7283 -81.7594 132° Southeast 247 284 8,900 -60 Descending Atlanta Center
04:54PM 35.6900 -81.7094 133° Southeast 249 287 8,900 60 Level Atlanta Center
04:54PM 35.6533 -81.6567 131° Southeast 244 281 9,000  Climbing Atlanta Center
04:55PM 35.6125 -81.5967 130° Southeast 245 282 9,000 -60 Level Atlanta Center
04:56PM 35.5675 -81.5317 130° Southeast 248 285 8,900 -300 Descending Atlanta Center
04:57PM 35.5219 -81.4539 126° Southeast 261 300 8,400 -600 Descending Atlanta Center
04:58PM 35.4789 -81.3814 126° Southeast 270 311 7,800 -600 Descending Atlanta Center
04:59PM 35.4456 -81.2906 114° Southeast 274 315 7,200 -540 Descending Atlanta Center
05:01PM 35.4306 -81.1892 100° East 269 310 6,700 -540 Descending Atlanta Center
05:02PM 35.4203 -81.0978 98° East 249 287 6,100 -900 Descending Atlanta Center
05:03PM 35.4267 -81.0236 84° East 205 236 4,900 -1,140 Descending Atlanta Center
05:04PM 35.3861 -80.9844 142° Southeast 197 227 3,900 -1,140 Descending Atlanta Center
05:05PM 35.3275 -80.9789 176° South 181 208 2,600 -1,020 Descending Atlanta Center
05:06PM 35.2817 -80.9781 179° South 166 191 1,800 -780 Descending Atlanta Center
05:07PM 35.2461 -80.9717 172° South 118 136 1,100 -720 Descending Atlanta Center